.
WxDataArchive / Data Records for 2014-03-24
2014-03-23 March 2014 2014-03-25

Data Records for Monday, 24 March 2014

Time	Temp	Chill	HIndex	Humid	Dewpt	 Wind 	HiWind	WindDir	Rain 	Barom
-----	----	-----	------	-----	-----	------	------	-------	-----	-----
00:00	21.0	21.0	21.0	59	9.0	0	0	---	0.00	30.386 
00:05	20.8	20.8	20.8	59	8.8	0	0	---	0.00	30.386 
00:10	20.6	20.6	20.6	60	8.9	0	0	---	0.00	30.386 
00:15	20.5	20.5	20.5	60	8.9	0	0	---	0.00	30.383 
00:20	20.3	20.3	20.3	60	8.7	0	0	---	0.00	30.383 
00:25	20.2	20.2	20.2	61	8.9	0	0	---	0.00	30.383 
00:30	20.0	20.0	20.0	61	8.7	0	0	---	0.00	30.385 
00:35	19.9	19.9	19.9	61	8.7	0	0	---	0.00	30.385 
00:40	19.7	19.7	19.7	61	8.5	0	0	---	0.00	30.385 
00:45	19.7	19.7	19.7	61	8.5	0	0	---	0.00	30.380 
00:50	19.4	19.4	19.4	61	8.2	0	0	---	0.00	30.380 
00:55	19.4	19.4	19.4	61	8.2	0	1	270	0.00	30.380 
01:00	19.4	19.4	19.4	60	7.8	0	0	---	0.00	30.382 
01:05	19.4	19.4	19.4	60	7.8	0	0	---	0.00	30.382 
01:10	19.2	19.2	19.2	59	7.3	0	0	---	0.00	30.382 
01:15	19.1	19.1	19.1	60	7.5	0	0	---	0.00	30.380 
01:20	18.9	18.9	18.9	60	7.3	0	0	---	0.00	30.380 
01:25	18.6	18.6	18.6	61	7.4	0	0	---	0.00	30.380 
01:30	18.6	18.6	18.6	62	7.8	0	0	---	0.00	30.372 
01:35	18.6	18.6	18.6	62	7.8	0	0	---	0.00	30.372 
01:40	18.4	18.4	18.4	61	7.2	0	0	---	0.00	30.372 
01:45	18.4	18.4	18.4	62	7.6	0	0	---	0.00	30.372 
01:50	18.3	18.3	18.3	62	7.5	0	0	---	0.00	30.372 
01:55	18.1	18.1	18.1	62	7.3	0	0	---	0.00	30.372 
02:00	18.0	18.0	18.0	63	7.6	0	0	---	0.00	30.373 
02:05	17.8	17.8	17.8	63	7.4	0	0	---	0.00	30.373 
02:10	17.7	17.7	17.7	64	7.6	0	0	---	0.00	30.373 
02:15	17.7	17.7	17.7	65	8.0	0	0	---	0.00	30.373 
02:20	17.5	17.5	17.5	65	7.8	0	0	---	0.00	30.373 
02:25	17.3	17.3	17.3	66	7.9	0	0	---	0.00	30.373 
02:30	17.2	17.2	17.2	66	7.8	0	0	---	0.00	30.373 
02:35	16.9	16.9	16.9	66	7.5	0	0	---	0.00	30.373 
02:40	16.7	16.7	16.7	66	7.3	0	0	---	0.00	30.373 
02:45	16.5	16.5	16.5	67	7.5	0	0	---	0.00	30.372 
02:50	16.4	16.4	16.4	67	7.4	0	0	---	0.00	30.372 
02:55	16.2	16.2	16.2	68	7.5	0	0	---	0.00	30.372 
03:00	16.2	16.2	16.2	69	7.8	0	0	---	0.00	30.372 
03:05	16.1	16.1	16.1	70	8.1	0	0	---	0.00	30.372 
03:10	16.1	16.1	16.1	70	8.1	0	0	---	0.00	30.372 
03:15	16.1	16.1	16.1	70	8.1	0	0	---	0.00	30.372 
03:20	16.1	16.1	16.1	71	8.4	0	0	---	0.00	30.372 
03:25	16.2	16.2	16.2	70	8.2	0	0	---	0.00	30.372 
03:30	16.2	16.2	16.2	70	8.2	0	0	---	0.00	30.371 
03:35	16.1	16.1	16.1	69	7.8	0	0	---	0.00	30.371 
03:40	16.1	16.1	16.1	69	7.8	0	0	---	0.00	30.371 
03:45	15.9	15.9	15.9	69	7.6	0	0	---	0.00	30.371 
03:50	15.7	15.7	15.7	69	7.4	0	0	---	0.00	30.371 
03:55	15.7	15.7	15.7	70	7.7	0	0	---	0.00	30.371 
04:00	15.6	15.6	15.6	70	7.6	0	0	---	0.00	30.371 
04:05	15.6	15.6	15.6	71	7.9	0	0	---	0.00	30.371 
04:10	15.4	15.4	15.4	71	7.7	0	0	---	0.00	30.371 
04:15	15.6	15.6	15.6	72	8.2	0	0	---	0.00	30.371 
04:20	15.7	15.7	15.7	72	8.3	0	0	---	0.00	30.371 
04:25	15.9	15.9	15.9	73	8.8	0	0	---	0.00	30.371 
04:30	15.9	15.9	15.9	73	8.8	0	0	---	0.00	30.371 
04:35	16.1	16.1	16.1	73	9.0	0	0	---	0.00	30.371 
04:40	16.1	16.1	16.1	73	9.0	0	0	---	0.00	30.371 
04:45	16.1	16.1	16.1	73	9.0	0	0	---	0.00	30.366 
04:50	16.2	16.2	16.2	73	9.1	0	0	---	0.00	30.366 
04:55	16.2	16.2	16.2	72	8.8	0	0	---	0.00	30.366 
05:00	16.1	16.1	16.1	72	8.7	0	0	---	0.00	30.370 
05:05	16.1	16.1	16.1	72	8.7	0	0	---	0.00	30.370 
05:10	16.2	16.2	16.2	72	8.8	0	0	---	0.00	30.370 
05:15	16.2	16.2	16.2	72	8.8	0	0	---	0.00	30.370 
05:20	16.2	16.2	16.2	72	8.8	0	0	---	0.00	30.370 
05:25	16.1	16.1	16.1	72	8.7	0	0	---	0.00	30.370 
05:30	15.9	15.9	15.9	72	8.5	0	0	---	0.00	30.369 
05:35	15.7	15.7	15.7	72	8.3	0	0	---	0.00	30.369 
05:40	15.7	15.7	15.7	72	8.3	0	0	---	0.00	30.369 
05:45	15.6	15.6	15.6	72	8.2	0	0	---	0.00	30.373 
05:50	15.6	15.6	15.6	73	8.5	0	0	---	0.00	30.373 
05:55	15.6	15.6	15.6	73	8.5	0	0	---	0.00	30.373 
06:00	15.6	15.6	15.6	73	8.5	0	0	---	0.00	30.373 
06:05	15.6	15.6	15.6	73	8.5	0	0	---	0.00	30.373 
06:10	15.6	15.6	15.6	73	8.5	0	0	---	0.00	30.373 
06:15	15.6	15.6	15.6	73	8.5	0	0	---	0.00	30.375 
06:20	15.6	15.6	15.6	73	8.5	0	0	---	0.00	30.375 
06:25	15.4	15.4	15.4	73	8.3	0	0	---	0.00	30.375 
06:30	15.4	15.4	15.4	73	8.3	0	0	---	0.00	30.374 
06:35	15.2	15.2	15.2	73	8.1	0	0	---	0.00	30.374 
06:40	15.1	15.1	15.1	73	8.0	0	0	---	0.00	30.374 
06:45	15.1	15.1	15.1	74	8.3	0	0	---	0.00	30.374 
06:50	14.9	14.9	14.9	74	8.1	0	0	---	0.00	30.374 
06:55	14.9	14.9	14.9	74	8.1	0	0	---	0.00	30.374 
07:00	14.9	14.9	14.9	75	8.4	0	0	---	0.00	30.373 
07:05	14.8	14.8	14.8	75	8.3	0	0	---	0.00	30.373 
07:10	14.8	14.8	14.8	75	8.3	0	0	---	0.00	30.373 
07:15	14.6	14.6	14.6	75	8.1	0	0	---	0.00	30.371 
07:20	14.6	14.6	14.6	76	8.4	0	0	---	0.00	30.371 
07:25	14.6	14.6	14.6	76	8.4	0	0	---	0.00	30.371 
07:30	14.4	14.4	14.4	76	8.2	0	0	---	0.00	30.373 
07:35	14.4	14.4	14.4	76	8.2	0	0	---	0.00	30.373 
07:40	14.3	14.3	14.3	77	8.4	0	0	---	0.00	30.373 
07:45	14.3	14.3	14.3	77	8.4	0	0	---	0.00	30.363 
07:50	14.3	14.3	14.3	77	8.4	0	0	---	0.00	30.363 
07:55	14.3	14.3	14.3	78	8.7	0	0	---	0.00	30.363 
08:00	14.6	14.6	14.6	78	9.0	0	0	---	0.00	30.376 
08:05	14.9	14.9	14.9	79	9.6	0	0	---	0.00	30.376 
08:10	15.2	15.2	15.2	79	9.9	0	0	---	0.00	30.376 
08:15	15.6	15.6	15.6	79	10.3	0	0	---	0.00	30.379 
08:20	16.1	16.1	16.1	79	10.8	0	0	---	0.00	30.379 
08:25	16.4	16.4	16.4	78	10.8	0	0	---	0.00	30.379 
08:30	16.9	16.9	16.9	78	11.3	0	0	---	0.00	30.378 
08:35	17.3	17.3	17.3	78	11.6	0	0	---	0.00	30.378 
08:40	18.0	18.0	18.0	77	12.0	0	0	---	0.00	30.378 
08:45	18.4	18.4	18.4	75	11.8	0	1	270	0.00	30.378 
08:50	19.1	19.1	19.1	73	11.9	0	1	270	0.00	30.378 
08:55	19.4	19.4	19.4	70	11.2	0	1	270	0.00	30.378 
09:00	19.9	19.9	19.9	69	11.4	0	0	---	0.00	30.377 
09:05	20.3	20.3	20.3	67	11.1	0	1	270	0.00	30.377 
09:10	20.6	20.6	20.6	65	10.7	0	1	270	0.00	30.377 
09:15	21.0	21.0	21.0	62	10.1	0	1	270	0.00	30.372 
09:20	21.3	21.3	21.3	59	9.2	0	1	270	0.00	30.372 
09:25	21.6	21.6	21.6	58	9.1	0	1	270	0.00	30.372 
09:30	21.9	21.9	21.9	57	9.0	0	1	270	0.00	30.367 
09:35	22.2	22.2	22.2	56	8.9	0	1	270	0.00	30.367 
09:40	22.9	22.9	22.9	55	9.2	0	1	270	0.00	30.367 
09:45	23.5	23.5	23.5	52	8.5	0	0	---	0.00	30.358 
09:50	24.1	24.1	24.1	48	7.3	0	2	270	0.00	30.358 
09:55	24.4	24.4	24.4	47	7.1	0	2	270	0.00	30.358 
10:00	24.8	24.8	24.8	46	7.0	0	1	270	0.00	30.351 
10:05	25.4	25.4	25.4	46	7.5	1	3	270	0.00	30.351 
10:10	25.6	25.6	25.6	44	6.7	1	2	270	0.00	30.351 
10:15	25.6	25.6	25.6	43	6.2	1	3	270	0.00	30.354 
10:20	25.6	25.6	25.6	44	6.7	0	1	270	0.00	30.354 
10:25	26.1	26.1	26.1	45	7.7	1	4	112	0.00	30.354 
10:30	26.3	26.3	26.3	44	7.4	0	3	112	0.00	30.353 
10:35	26.6	26.6	26.6	47	9.1	0	1	112	0.00	30.353 
10:40	26.9	26.9	26.9	45	8.4	1	3	112	0.00	30.353 
10:45	27.0	27.0	27.0	45	8.5	0	2	112	0.00	30.346 
10:50	27.2	27.2	27.2	44	8.2	0	2	225	0.00	30.346 
10:55	27.6	27.6	27.6	44	8.6	0	2	225	0.00	30.346 
11:00	27.8	27.8	27.8	42	7.7	1	4	225	0.00	30.340 
11:05	27.9	27.9	27.9	42	7.8	0	1	90	0.00	30.340 
11:10	27.9	27.9	27.9	43	8.3	1	3	270	0.00	30.340 
11:15	27.6	27.6	27.6	42	7.5	0	3	270	0.00	30.339 
11:20	28.2	28.2	28.2	44	9.1	0	2	270	0.00	30.339 
11:25	28.5	28.5	28.5	42	8.4	1	2	270	0.00	30.339 
11:30	28.4	28.4	28.4	41	7.7	1	3	270	0.00	30.339 
11:35	28.8	28.8	28.8	43	9.2	1	4	270	0.00	30.339 
11:40	29.0	29.0	29.0	42	8.8	1	4	248	0.00	30.339 
11:45	28.8	28.8	28.8	42	8.6	1	4	270	0.00	30.332 
11:50	29.3	29.3	29.3	42	9.1	0	2	270	0.00	30.332 
11:55	29.5	29.5	29.5	42	9.3	2	5	248	0.00	30.332 
12:00	29.5	29.5	29.5	41	8.7	1	4	248	0.00	30.328 
12:05	29.5	29.5	29.5	40	8.2	1	3	248	0.00	30.328 
12:10	29.7	29.7	29.7	40	8.4	1	3	248	0.00	30.328 
12:15	29.8	29.8	29.8	42	9.5	1	4	248	0.00	30.323 
12:20	29.8	29.8	29.8	42	9.5	1	4	248	0.00	30.323 
12:25	30.0	30.0	30.0	42	9.7	1	4	248	0.00	30.323 
12:30	30.3	30.3	30.3	42	10.0	2	7	248	0.00	30.321 
12:35	30.6	30.6	30.6	40	9.2	1	4	248	0.00	30.321 
12:40	30.9	30.9	30.9	42	10.5	0	3	248	0.00	30.321 
12:45	31.5	31.5	31.5	41	10.5	1	5	248	0.00	30.312 
12:50	31.0	31.0	31.0	37	7.8	2	6	248	0.00	30.312 
12:55	30.6	30.6	30.6	41	9.7	2	5	270	0.00	30.312 
13:00	30.6	30.6	30.6	41	9.7	1	4	248	0.00	30.309 
13:05	30.3	30.3	30.3	41	9.5	0	3	270	0.00	30.309 
13:10	30.7	30.7	30.7	44	11.4	1	5	270	0.00	30.309 
13:15	31.2	31.2	31.2	42	10.8	1	4	270	0.00	30.304 
13:20	31.6	31.6	31.6	42	11.2	2	6	270	0.00	30.304 
13:25	31.6	31.6	31.6	43	11.7	1	4	338	0.00	30.304 
13:30	32.1	32.1	32.1	43	12.2	1	5	248	0.00	30.295 
13:35	32.1	32.1	32.1	41	11.1	2	6	248	0.00	30.295 
13:40	32.1	32.1	32.1	40	10.5	1	5	270	0.00	30.295 
13:45	32.4	32.4	32.4	40	10.8	2	5	270	0.00	30.290 
13:50	32.1	32.1	32.1	40	10.5	1	3	315	0.00	30.290 
13:55	31.9	31.9	31.9	41	10.9	1	5	315	0.00	30.290 
14:00	31.8	31.8	31.8	41	10.8	1	4	270	0.00	30.277 
14:05	31.6	31.6	31.6	43	11.7	1	4	292	0.00	30.277 
14:10	32.5	32.5	32.5	42	12.0	2	4	292	0.00	30.277 
14:15	33.1	33.1	33.1	43	13.1	2	7	270	0.00	30.263 
14:20	33.1	33.1	33.1	42	12.5	1	5	270	0.00	30.263 
14:25	32.8	32.8	32.8	43	12.8	2	5	315	0.00	30.263 
14:30	32.8	32.8	32.8	44	13.3	1	5	315	0.00	30.259 
14:35	32.8	32.8	32.8	42	12.3	2	5	292	0.00	30.259 
14:40	33.2	33.2	33.2	40	11.5	2	4	248	0.00	30.259 
14:45	32.9	32.9	32.9	39	10.7	1	4	270	0.00	30.248 
14:50	32.9	32.9	32.9	41	11.8	2	4	270	0.00	30.248 
14:55	33.4	33.4	33.4	41	12.3	1	6	270	0.00	30.248 
15:00	33.1	33.1	33.1	39	10.9	1	4	248	0.00	30.244 
15:05	33.1	33.1	33.1	41	12.0	1	5	248	0.00	30.244 
15:10	33.5	33.5	33.5	42	12.9	2	6	270	0.00	30.244 
15:15	34.0	34.0	34.0	42	13.3	1	3	270	0.00	30.235 
15:20	33.8	33.8	33.8	40	12.1	1	6	338	0.00	30.235 
15:25	33.7	33.7	33.7	40	12.0	0	2	338	0.00	30.235 
15:30	33.8	33.8	33.8	40	12.1	3	6	292	0.00	30.222 
15:35	33.5	33.5	33.5	40	11.8	2	6	270	0.00	30.222 
15:40	33.7	33.7	33.7	42	13.1	1	4	248	0.00	30.222 
15:45	34.1	34.1	34.1	44	14.5	2	9	292	0.00	30.212 
15:50	34.4	34.4	34.4	42	13.7	1	4	270	0.00	30.212 
15:55	34.6	34.6	34.6	41	13.3	1	4	248	0.00	30.212 
16:00	34.4	34.4	34.4	40	12.6	2	6	248	0.00	30.210 
16:05	34.3	34.3	34.3	40	12.5	1	5	248	0.00	30.210 
16:10	34.1	34.1	34.1	40	12.3	1	5	248	0.00	30.210 
16:15	34.0	34.0	34.0	41	12.8	2	6	248	0.00	30.203 
16:20	33.5	33.5	33.5	42	12.9	2	5	270	0.00	30.203 
16:25	33.1	33.1	33.1	43	13.1	0	3	270	0.00	30.203 
16:30	33.1	33.1	33.1	43	13.1	0	3	270	0.00	30.201 
16:35	33.5	33.5	33.5	41	12.4	2	4	270	0.00	30.201 
16:40	34.0	34.0	34.0	39	11.7	3	5	270	0.00	30.201 
16:45	33.7	33.7	33.7	39	11.4	2	6	270	0.00	30.199 
16:50	34.0	34.0	34.0	40	12.2	1	4	248	0.00	30.199 
16:55	34.1	34.1	34.1	39	11.8	2	6	270	0.00	30.199 
17:00	33.8	33.8	33.8	39	11.5	1	5	248	0.00	30.194 
17:05	34.0	34.0	34.0	40	12.2	1	4	248	0.00	30.194 
17:10	34.3	34.3	34.3	39	11.9	2	5	248	0.00	30.194 
17:15	34.4	34.4	34.4	39	12.0	1	3	248	0.00	30.193 
17:20	34.4	34.4	34.4	39	12.0	1	5	248	0.00	30.193 
17:25	34.4	34.4	34.4	40	12.6	1	2	248	0.00	30.193 
17:30	34.3	34.3	34.3	38	11.4	2	7	270	0.00	30.184 
17:35	34.6	34.6	34.6	38	11.6	1	2	270	0.00	30.184 
17:40	34.6	34.6	34.6	38	11.6	0	3	270	0.00	30.184 
17:45	34.6	34.6	34.6	39	12.2	1	6	270	0.00	30.181 
17:50	34.3	34.3	34.3	37	10.8	2	5	315	0.00	30.181 
17:55	34.1	34.1	34.1	37	10.6	1	3	315	0.00	30.181 
18:00	34.3	34.3	34.3	38	11.4	1	3	270	0.00	30.182 
18:05	34.1	34.1	34.1	38	11.2	1	4	270	0.00	30.182 
18:10	33.8	33.8	33.8	38	10.9	1	3	248	0.00	30.182 
18:15	33.7	33.7	33.7	39	11.4	1	3	270	0.00	30.185 
18:20	33.5	33.5	33.5	39	11.2	1	5	248	0.00	30.185 
18:25	33.5	33.5	33.5	39	11.2	1	3	270	0.00	30.185 
18:30	33.4	33.4	33.4	40	11.7	1	2	292	0.00	30.183 
18:35	33.4	33.4	33.4	39	11.1	1	3	270	0.00	30.183 
18:40	33.2	33.2	33.2	39	11.0	1	4	270	0.00	30.183 
18:45	33.1	33.1	33.1	39	10.9	2	5	270	0.00	30.181 
18:50	32.9	32.9	32.9	39	10.7	1	3	292	0.00	30.181 
18:55	32.8	32.8	32.8	41	11.7	1	6	270	0.00	30.181 
19:00	32.5	32.5	32.5	43	12.5	1	3	315	0.00	30.181 
19:05	32.2	32.2	32.2	44	12.8	1	6	315	0.00	30.181 
19:10	32.1	32.1	32.1	45	13.2	1	5	338	0.00	30.181 
19:15	31.8	31.8	31.8	45	12.9	2	6	338	0.00	30.181 
19:20	31.5	31.5	31.5	46	13.1	1	4	292	0.00	30.181 
19:25	31.2	31.2	31.2	45	12.4	1	4	292	0.00	30.181 
19:30	31.0	31.0	31.0	46	12.7	1	4	292	0.00	30.179 
19:35	30.9	30.9	30.9	46	12.6	1	5	338	0.00	30.179 
19:40	30.7	30.7	30.7	46	12.4	1	4	292	0.00	30.179 
19:45	30.6	30.6	30.6	46	12.3	1	4	338	0.00	30.178 
19:50	30.4	30.4	30.4	46	12.1	1	5	270	0.00	30.178 
19:55	30.3	30.3	30.3	46	12.0	0	3	248	0.00	30.178 
20:00	30.1	30.1	30.1	46	11.8	0	3	315	0.00	30.176 
20:05	30.0	30.0	30.0	46	11.8	1	4	292	0.00	30.176 
20:10	29.8	29.8	29.8	46	11.6	1	4	292	0.00	30.176 
20:15	29.7	29.7	29.7	46	11.5	0	3	315	0.00	30.170 
20:20	29.5	29.5	29.5	45	10.8	1	3	292	0.00	30.170 
20:25	29.4	29.4	29.4	45	10.7	0	3	292	0.00	30.170 
20:30	29.3	29.3	29.3	45	10.6	0	2	292	0.00	30.168 
20:35	29.1	29.1	29.1	44	9.9	0	3	292	0.00	30.168 
20:40	29.0	29.0	29.0	44	9.8	0	1	292	0.00	30.168 
20:45	28.8	28.8	28.8	44	9.7	0	1	292	0.00	30.166 
20:50	28.7	28.7	28.7	44	9.6	0	1	292	0.00	30.166 
20:55	28.4	28.4	28.4	44	9.3	0	1	292	0.00	30.166 
21:00	28.2	28.2	28.2	44	9.1	0	1	292	0.00	30.166 
21:05	28.1	28.1	28.1	44	9.0	0	0	---	0.00	30.166 
21:10	27.9	27.9	27.9	44	8.8	0	0	---	0.00	30.166 
21:15	27.8	27.8	27.8	44	8.8	0	0	---	0.00	30.163 
21:20	27.6	27.6	27.6	44	8.6	0	0	---	0.00	30.163 
21:25	27.3	27.3	27.3	44	8.3	0	0	---	0.00	30.163 
21:30	27.2	27.2	27.2	44	8.2	0	0	---	0.00	30.163 
21:35	27.0	27.0	27.0	45	8.5	0	0	---	0.00	30.163 
21:40	26.9	26.9	26.9	45	8.4	0	0	---	0.00	30.163 
21:45	26.6	26.6	26.6	45	8.2	0	0	---	0.00	30.163 
21:50	26.3	26.3	26.3	46	8.4	0	0	---	0.00	30.163 
21:55	26.0	26.0	26.0	49	9.5	0	0	---	0.00	30.163 
22:00	25.8	25.8	25.8	49	9.3	0	0	---	0.00	30.162 
22:05	25.6	25.6	25.6	48	8.7	0	0	---	0.00	30.162 
22:10	25.3	25.3	25.3	49	8.8	0	0	---	0.00	30.162 
22:15	25.0	25.0	25.0	49	8.6	0	0	---	0.00	30.152 
22:20	24.7	24.7	24.7	50	8.7	0	0	---	0.00	30.152 
22:25	24.4	24.4	24.4	51	8.9	0	0	---	0.00	30.152 
22:30	24.2	24.2	24.2	51	8.7	0	0	---	0.00	30.149 
22:35	24.1	24.1	24.1	53	9.5	0	0	---	0.00	30.149 
22:40	23.8	23.8	23.8	53	9.2	0	0	---	0.00	30.149 
22:45	23.6	23.6	23.6	53	9.0	0	0	---	0.00	30.146 
22:50	23.5	23.5	23.5	54	9.3	0	0	---	0.00	30.146 
22:55	23.2	23.2	23.2	56	9.9	0	0	---	0.00	30.146 
23:00	23.0	23.0	23.0	57	10.1	0	0	---	0.00	30.144 
23:05	22.9	22.9	22.9	57	10.0	0	0	---	0.00	30.144 
23:10	22.7	22.7	22.7	57	9.8	0	0	---	0.00	30.144 
23:15	22.5	22.5	22.5	58	10.0	0	0	---	0.00	30.133 
23:20	22.4	22.4	22.4	58	9.9	0	0	---	0.00	30.133 
23:25	22.1	22.1	22.1	59	10.0	0	0	---	0.00	30.133 
23:30	21.9	21.9	21.9	60	10.2	0	0	---	0.00	30.131 
23:35	21.8	21.8	21.8	61	10.4	0	0	---	0.00	30.131 
23:40	21.6	21.6	21.6	62	10.6	0	0	---	0.00	30.131 
23:45	21.3	21.3	21.3	62	10.3	0	0	---	0.00	30.133 
23:50	21.1	21.1	21.1	63	10.5	0	0	---	0.00	30.133 
23:55	21.0	21.0	21.0	63	10.4	0	0	---	0.00	30.133 

CoCoRaHS
IN-AL-39
A2 Web Hosting
Creative Commons License
GoDaddy
search engine by freefind advanced

loaded 2018-11-17 15:18:52 • last modified 2010-11-18 10:43:29
Privacy PolicyDisclaimer
• wx.awcolley.com is powered by PmWiki v.2002016 •
• all content (unless otherwise noted) © 2018 A W Colley